Startpagina
METAR-TAF:

METAR-TAF

Vliegvelden :

Vliegbasis Leeuwarden

Leeuwarden, Nederland

breedte: 53-13N, lengte: 005-46E, hoogte: 1 m

Actueel weer

Dit bericht is 30 minuten geleden gemaakt, om 15:55 UTC
Wind 7 kt uit het zuiden, variërend tussen het zuidzuidoosten en het zuidzuidwesten
Temperatuur 10°C
Vochtigheid 87%
Druk 1025 hPa
Zicht 10 km of meer
Geheel bewolkt op 16000 ft

METAR: EHLW 141555Z AUTO 18007KT 150V210 9999 OVC160 10/08 Q1025 BLU

Tijdstip: 17:25 (16:25 UTC)

Verwachting

Dit bericht is 4 uur en het 1 minuten geleden gemaakt, om 12:24 UTC
Verwachting geldig van 14 om 14 UTC tot 15 om 02 UTC
Wind 9 kt uit het zuiden
Zicht 10 km of meer
geen wolken onder 1500 m en geen cumulonimbus
Kans 40%
van 14 om 22 UTC tot 15 om 02 UTC
Zicht: 2000 m
nevel

TAF: EHLW 141224Z 1414/1502 18009KT CAVOK PROB40 1422/1502 2000 BR

Waarnemingen en weersverwachtingen van meer dan 4000 vliegvelden (METAR en TAF).

De beschikbare stations zijn de gele en rode punten op de kaart.

Ga met uw muis naar het station om de naam te zien.

Klik dan om waarnemingen en weersverwachtingen te zien.

kaart wijzigen: klik op de groene knoppen met een zwart kruis om in te zoomen, op de groene knop met een streepje om uit te zoomen of op de groene pijlen voor aangrenzende kaarten.


METAR-TAF: